sensor_id;sensor_type;location;lat;lon;timestamp;pressure;altitude;pressure_sealevel;temperature;humidity
12211;BME280;6168;42.658;23.298;2022-09-27T00:01:32;64398.78;;;-139.92;100.00
12211;BME280;6168;42.658;23.298;2022-09-27T00:03:59;64375.88;;;-139.92;100.00
12211;BME280;6168;42.658;23.298;2022-09-27T00:06:28;64392.53;;;-139.92;100.00
12211;BME280;6168;42.658;23.298;2022-09-27T00:08:55;64402.97;;;-139.92;100.00
12211;BME280;6168;42.658;23.298;2022-09-27T00:11:24;64411.28;;;-139.92;100.00
12211;BME280;6168;42.658;23.298;2022-09-27T00:13:52;64413.38;;;-139.92;100.00
12211;BME280;6168;42.658;23.298;2022-09-27T00:16:19;64386.31;;;-139.92;100.00
12211;BME280;6168;42.658;23.298;2022-09-27T00:18:46;64423.78;;;-139.92;100.00
12211;BME280;6168;42.658;23.298;2022-09-27T00:21:13;64384.22;;;-139.92;100.00
12211;BME280;6168;42.658;23.298;2022-09-27T00:23:41;64402.97;;;-139.92;100.00
12211;BME280;6168;42.658;23.298;2022-09-27T00:26:09;64361.31;;;-139.92;100.00
12211;BME280;6168;42.658;23.298;2022-09-27T00:28:36;64405.03;;;-139.92;100.00
12211;BME280;6168;42.658;23.298;2022-09-27T00:31:03;64415.44;;;-139.92;100.00
12211;BME280;6168;42.658;23.298;2022-09-27T00:33:29;64396.72;;;-139.92;100.00
12211;BME280;6168;42.658;23.298;2022-09-27T00:36:02;64390.47;;;-139.92;100.00
12211;BME280;6168;42.658;23.298;2022-09-27T00:38:29;64405.03;;;-139.92;100.00
12211;BME280;6168;42.658;23.298;2022-09-27T00:40:56;64394.63;;;-139.92;100.00
12211;BME280;6168;42.658;23.298;2022-09-27T00:43:23;64380.06;;;-139.92;100.00
12211;BME280;6168;42.658;23.298;2022-09-27T00:45:50;64361.31;;;-139.92;100.00
12211;BME280;6168;42.658;23.298;2022-09-27T00:48:19;64388.38;;;-139.92;100.00
12211;BME280;6168;42.658;23.298;2022-09-27T00:50:49;64361.31;;;-139.92;100.00
12211;BME280;6168;42.658;23.298;2022-09-27T00:53:17;64415.44;;;-139.92;100.00
12211;BME280;6168;42.658;23.298;2022-09-27T00:55:48;64390.47;;;-139.92;100.00
12211;BME280;6168;42.658;23.298;2022-09-27T00:58:17;64394.63;;;-139.92;100.00
12211;BME280;6168;42.658;23.298;2022-09-27T01:00:47;64423.78;;;-139.92;100.00
12211;BME280;6168;42.658;23.298;2022-09-27T01:03:18;64419.63;;;-139.92;100.00
12211;BME280;6168;42.658;23.298;2022-09-27T01:05:48;64390.47;;;-139.92;100.00
12211;BME280;6168;42.658;23.298;2022-09-27T01:08:15;64375.88;;;-139.92;100.00
12211;BME280;6168;42.658;23.298;2022-09-27T01:10:43;64390.47;;;-139.92;100.00
12211;BME280;6168;42.658;23.298;2022-09-27T01:13:16;64380.06;;;-139.92;100.00
12211;BME280;6168;42.658;23.298;2022-09-27T01:15:48;64373.81;;;-139.92;100.00
12211;BME280;6168;42.658;23.298;2022-09-27T01:18:21;64402.97;;;-139.92;100.00
12211;BME280;6168;42.658;23.298;2022-09-27T01:21:06;64415.44;;;-139.92;100.00
12211;BME280;6168;42.658;23.298;2022-09-27T01:26:27;64419.63;;;-139.92;100.00
12211;BME280;6168;42.658;23.298;2022-09-27T01:28:57;64405.03;;;-139.92;100.00
12211;BME280;6168;42.658;23.298;2022-09-27T01:31:29;64359.22;;;-139.92;100.00
12211;BME280;6168;42.658;23.298;2022-09-27T01:34:00;64384.22;;;-139.92;100.00
12211;BME280;6168;42.658;23.298;2022-09-27T01:36:32;64423.78;;;-139.92;100.00
12211;BME280;6168;42.658;23.298;2022-09-27T01:39:05;64405.03;;;-139.92;100.00
12211;BME280;6168;42.658;23.298;2022-09-27T01:41:35;64371.72;;;-139.92;100.00
12211;BME280;6168;42.658;23.298;2022-09-27T01:44:03;64413.38;;;-139.92;100.00
12211;BME280;6168;42.658;23.298;2022-09-27T01:46:34;64415.44;;;-139.92;100.00
12211;BME280;6168;42.658;23.298;2022-09-27T01:49:02;64423.78;;;-139.92;100.00
12211;BME280;6168;42.658;23.298;2022-09-27T01:51:31;64394.63;;;-139.92;100.00
12211;BME280;6168;42.658;23.298;2022-09-27T01:54:01;64367.56;;;-139.92;100.00
12211;BME280;6168;42.658;23.298;2022-09-27T01:56:29;64398.78;;;-139.92;100.00
12211;BME280;6168;42.658;23.298;2022-09-27T01:59:01;64407.13;;;-139.92;100.00
12211;BME280;6168;42.658;23.298;2022-09-27T02:01:28;64369.63;;;-139.92;100.00
12211;BME280;6168;42.658;23.298;2022-09-27T02:03:59;64388.38;;;-139.92;100.00
12211;BME280;6168;42.658;23.298;2022-09-27T02:06:27;64413.38;;;-139.92;100.00
12211;BME280;6168;42.658;23.298;2022-09-27T02:08:57;64373.81;;;-139.92;100.00
12211;BME280;6168;42.658;23.298;2022-09-27T02:11:25;64400.88;;;-139.92;100.00
12211;BME280;6168;42.658;23.298;2022-09-27T02:13:53;64402.97;;;-139.92;100.00
12211;BME280;6168;42.658;23.298;2022-09-27T02:16:22;64432.13;;;-139.92;100.00
12211;BME280;6168;42.658;23.298;2022-09-27T02:18:55;64407.13;;;-139.92;100.00
12211;BME280;6168;42.658;23.298;2022-09-27T02:21:29;64392.53;;;-139.92;100.00
12211;BME280;6168;42.658;23.298;2022-09-27T02:23:58;64440.44;;;-139.92;100.00
12211;BME280;6168;42.658;23.298;2022-09-27T02:26:30;64407.13;;;-139.92;100.00
12211;BME280;6168;42.658;23.298;2022-09-27T02:28:59;64407.13;;;-139.92;100.00
12211;BME280;6168;42.658;23.298;2022-09-27T02:31:26;64415.44;;;-139.92;100.00
12211;BME280;6168;42.658;23.298;2022-09-27T02:33:54;64367.56;;;-139.92;100.00
12211;BME280;6168;42.658;23.298;2022-09-27T02:36:22;64392.53;;;-139.92;100.00
12211;BME280;6168;42.658;23.298;2022-09-27T02:38:51;64398.78;;;-139.92;100.00
12211;BME280;6168;42.658;23.298;2022-09-27T02:41:18;64419.63;;;-139.92;100.00
12211;BME280;6168;42.658;23.298;2022-09-27T02:43:46;64384.22;;;-139.92;100.00
12211;BME280;6168;42.658;23.298;2022-09-27T02:46:18;64390.47;;;-139.92;100.00
12211;BME280;6168;42.658;23.298;2022-09-27T02:48:52;64461.25;;;-139.92;100.00
12211;BME280;6168;42.658;23.298;2022-09-27T02:51:25;64407.13;;;-139.92;100.00
12211;BME280;6168;42.658;23.298;2022-09-27T02:53:59;64427.94;;;-139.92;100.00
12211;BME280;6168;42.658;23.298;2022-09-27T02:56:30;64359.22;;;-139.92;100.00
12211;BME280;6168;42.658;23.298;2022-09-27T02:59:02;64371.72;;;-139.92;100.00
12211;BME280;6168;42.658;23.298;2022-09-27T03:01:35;64405.03;;;-139.92;100.00
12211;BME280;6168;42.658;23.298;2022-09-27T03:04:03;64430.03;;;-139.92;100.00
12211;BME280;6168;42.658;23.298;2022-09-27T03:06:33;64388.38;;;-139.92;100.00
12211;BME280;6168;42.658;23.298;2022-09-27T03:09:02;64384.22;;;-139.92;100.00
12211;BME280;6168;42.658;23.298;2022-09-27T03:11:29;64357.16;;;-139.92;100.00
12211;BME280;6168;42.658;23.298;2022-09-27T03:13:57;64373.81;;;-139.92;100.00
12211;BME280;6168;42.658;23.298;2022-09-27T03:16:24;64415.44;;;-139.92;100.00
12211;BME280;6168;42.658;23.298;2022-09-27T03:18:51;64423.78;;;-139.92;100.00
12211;BME280;6168;42.658;23.298;2022-09-27T03:21:17;64398.78;;;-139.92;100.00
12211;BME280;6168;42.658;23.298;2022-09-27T03:23:44;64430.03;;;-139.92;100.00
12211;BME280;6168;42.658;23.298;2022-09-27T03:26:12;64373.81;;;-139.92;100.00
12211;BME280;6168;42.658;23.298;2022-09-27T03:28:39;64407.13;;;-139.92;100.00
12211;BME280;6168;42.658;23.298;2022-09-27T03:31:05;64350.91;;;-139.92;100.00
12211;BME280;6168;42.658;23.298;2022-09-27T03:33:33;64411.28;;;-139.92;100.00
12211;BME280;6168;42.658;23.298;2022-09-27T03:35:59;64423.78;;;-139.92;100.00
12211;BME280;6168;42.658;23.298;2022-09-27T03:38:28;64425.88;;;-139.92;100.00
12211;BME280;6168;42.658;23.298;2022-09-27T03:40:54;64398.78;;;-139.92;100.00
12211;BME280;6168;42.658;23.298;2022-09-27T03:43:23;64407.13;;;-139.92;100.00
12211;BME280;6168;42.658;23.298;2022-09-27T03:45:49;64400.88;;;-139.92;100.00
12211;BME280;6168;42.658;23.298;2022-09-27T03:48:16;64390.47;;;-139.92;100.00
12211;BME280;6168;42.658;23.298;2022-09-27T03:50:43;64413.38;;;-139.92;100.00
12211;BME280;6168;42.658;23.298;2022-09-27T03:53:09;64396.72;;;-139.92;100.00
12211;BME280;6168;42.658;23.298;2022-09-27T03:55:36;64438.34;;;-139.92;100.00
12211;BME280;6168;42.658;23.298;2022-09-27T03:58:02;64413.38;;;-139.92;100.00
12211;BME280;6168;42.658;23.298;2022-09-27T04:00:30;64377.97;;;-139.92;100.00
12211;BME280;6168;42.658;23.298;2022-09-27T04:02:57;64394.63;;;-139.92;100.00
12211;BME280;6168;42.658;23.298;2022-09-27T04:05:24;64409.22;;;-139.92;100.00
12211;BME280;6168;42.658;23.298;2022-09-27T04:07:51;64377.97;;;-139.92;100.00
12211;BME280;6168;42.658;23.298;2022-09-27T04:10:18;64388.38;;;-139.92;100.00
12211;BME280;6168;42.658;23.298;2022-09-27T04:12:44;64373.81;;;-139.92;100.00
12211;BME280;6168;42.658;23.298;2022-09-27T04:15:11;64365.47;;;-139.92;100.00
12211;BME280;6168;42.658;23.298;2022-09-27T04:17:41;64390.47;;;-139.92;100.00
12211;BME280;6168;42.658;23.298;2022-09-27T04:20:07;64446.69;;;-139.92;100.00
12211;BME280;6168;42.658;23.298;2022-09-27T04:22:37;64413.38;;;-139.92;100.00
12211;BME280;6168;42.658;23.298;2022-09-27T04:25:04;64377.97;;;-139.92;100.00
12211;BME280;6168;42.658;23.298;2022-09-27T04:27:31;64411.28;;;-139.92;100.00
12211;BME280;6168;42.658;23.298;2022-09-27T04:29:58;64390.47;;;-139.92;100.00
12211;BME280;6168;42.658;23.298;2022-09-27T04:32:24;64405.03;;;-139.92;100.00
12211;BME280;6168;42.658;23.298;2022-09-27T04:34:52;64415.44;;;-139.92;100.00
12211;BME280;6168;42.658;23.298;2022-09-27T04:37:36;64407.13;;;-139.92;100.00
12211;BME280;6168;42.658;23.298;2022-09-27T04:40:03;64365.47;;;-139.92;100.00
12211;BME280;6168;42.658;23.298;2022-09-27T04:42:30;64394.63;;;-139.92;100.00
12211;BME280;6168;42.658;23.298;2022-09-27T04:44:58;64411.28;;;-139.92;100.00
12211;BME280;6168;42.658;23.298;2022-09-27T04:47:24;64427.94;;;-139.92;100.00
12211;BME280;6168;42.658;23.298;2022-09-27T04:49:52;64394.63;;;-139.92;100.00
12211;BME280;6168;42.658;23.298;2022-09-27T04:52:19;64407.13;;;-139.92;100.00
12211;BME280;6168;42.658;23.298;2022-09-27T04:54:46;64400.88;;;-139.92;100.00
12211;BME280;6168;42.658;23.298;2022-09-27T04:57:12;64371.72;;;-139.92;100.00
12211;BME280;6168;42.658;23.298;2022-09-27T04:59:39;64373.81;;;-139.92;100.00
12211;BME280;6168;42.658;23.298;2022-09-27T05:02:06;64423.78;;;-139.92;100.00
12211;BME280;6168;42.658;23.298;2022-09-27T05:04:33;64415.44;;;-139.92;100.00
12211;BME280;6168;42.658;23.298;2022-09-27T05:07:01;64440.44;;;-139.92;100.00
12211;BME280;6168;42.658;23.298;2022-09-27T05:09:29;64417.53;;;-139.92;100.00
12211;BME280;6168;42.658;23.298;2022-09-27T05:11:55;64407.13;;;-139.92;100.00
12211;BME280;6168;42.658;23.298;2022-09-27T05:14:22;64407.13;;;-139.92;100.00
12211;BME280;6168;42.658;23.298;2022-09-27T05:16:48;64365.47;;;-139.92;100.00
12211;BME280;6168;42.658;23.298;2022-09-27T05:19:17;64432.13;;;-139.92;100.00
12211;BME280;6168;42.658;23.298;2022-09-27T05:21:43;64396.72;;;-139.92;100.00
12211;BME280;6168;42.658;23.298;2022-09-27T05:24:11;64448.78;;;-139.92;100.00
12211;BME280;6168;42.658;23.298;2022-09-27T05:26:38;64377.97;;;-139.92;100.00
12211;BME280;6168;42.658;23.298;2022-09-27T05:29:06;64407.13;;;-139.92;100.00
12211;BME280;6168;42.658;23.298;2022-09-27T05:31:32;64419.63;;;-139.92;100.00
12211;BME280;6168;42.658;23.298;2022-09-27T05:33:59;64382.13;;;-139.92;100.00
12211;BME280;6168;42.658;23.298;2022-09-27T05:36:26;64394.63;;;-139.92;100.00
12211;BME280;6168;42.658;23.298;2022-09-27T05:38:52;64384.22;;;-139.92;100.00
12211;BME280;6168;42.658;23.298;2022-09-27T05:41:20;64405.03;;;-139.92;100.00
12211;BME280;6168;42.658;23.298;2022-09-27T05:43:47;64411.28;;;-139.92;100.00
12211;BME280;6168;42.658;23.298;2022-09-27T05:46:13;64375.88;;;-139.92;100.00
12211;BME280;6168;42.658;23.298;2022-09-27T05:48:40;64407.13;;;-139.92;100.00
12211;BME280;6168;42.658;23.298;2022-09-27T05:51:07;64409.22;;;-139.92;100.00
12211;BME280;6168;42.658;23.298;2022-09-27T05:53:33;64394.63;;;-139.92;100.00
12211;BME280;6168;42.658;23.298;2022-09-27T05:56:01;64382.13;;;-139.92;100.00
12211;BME280;6168;42.658;23.298;2022-09-27T05:58:29;64384.22;;;-139.92;100.00
12211;BME280;6168;42.658;23.298;2022-09-27T06:00:56;64411.28;;;-139.92;100.00
12211;BME280;6168;42.658;23.298;2022-09-27T06:03:22;64411.28;;;-139.92;100.00
12211;BME280;6168;42.658;23.298;2022-09-27T06:05:49;64373.81;;;-139.92;100.00
12211;BME280;6168;42.658;23.298;2022-09-27T06:08:16;64400.88;;;-139.92;100.00
12211;BME280;6168;42.658;23.298;2022-09-27T06:10:44;64413.38;;;-139.92;100.00
12211;BME280;6168;42.658;23.298;2022-09-27T06:13:12;64396.72;;;-139.92;100.00
12211;BME280;6168;42.658;23.298;2022-09-27T06:15:41;64419.63;;;-139.92;100.00
12211;BME280;6168;42.658;23.298;2022-09-27T06:18:09;64415.44;;;-139.92;100.00
12211;BME280;6168;42.658;23.298;2022-09-27T06:20:36;64377.97;;;-139.92;100.00
12211;BME280;6168;42.658;23.298;2022-09-27T06:23:06;64380.06;;;-139.92;100.00
12211;BME280;6168;42.658;23.298;2022-09-27T06:25:33;64390.47;;;-139.92;100.00
12211;BME280;6168;42.658;23.298;2022-09-27T06:28:00;64407.13;;;-139.92;100.00
12211;BME280;6168;42.658;23.298;2022-09-27T06:30:27;64375.88;;;-139.92;100.00
12211;BME280;6168;42.658;23.298;2022-09-27T06:32:58;64398.78;;;-139.92;100.00
12211;BME280;6168;42.658;23.298;2022-09-27T06:35:25;64396.72;;;-139.92;100.00
12211;BME280;6168;42.658;23.298;2022-09-27T06:37:52;64390.47;;;-139.92;100.00
12211;BME280;6168;42.658;23.298;2022-09-27T06:40:18;64396.72;;;-139.92;100.00
12211;BME280;6168;42.658;23.298;2022-09-27T06:42:46;64402.97;;;-139.92;100.00
12211;BME280;6168;42.658;23.298;2022-09-27T06:45:14;64411.28;;;-139.92;100.00
12211;BME280;6168;42.658;23.298;2022-09-27T06:47:40;64377.97;;;-139.92;100.00
12211;BME280;6168;42.658;23.298;2022-09-27T06:50:08;64405.03;;;-139.92;100.00
12211;BME280;6168;42.658;23.298;2022-09-27T06:52:36;64425.88;;;-139.92;100.00
12211;BME280;6168;42.658;23.298;2022-09-27T06:55:03;64398.78;;;-139.92;100.00
12211;BME280;6168;42.658;23.298;2022-09-27T06:57:30;64352.97;;;-139.92;100.00
12211;BME280;6168;42.658;23.298;2022-09-27T07:00:14;64367.56;;;-139.92;100.00
12211;BME280;6168;42.658;23.298;2022-09-27T07:02:50;64438.34;;;-139.92;100.00
12211;BME280;6168;42.658;23.298;2022-09-27T07:05:19;64394.63;;;-139.92;100.00
12211;BME280;6168;42.658;23.298;2022-09-27T07:07:45;64390.47;;;-139.92;100.00
12211;BME280;6168;42.658;23.298;2022-09-27T07:10:13;64398.78;;;-139.92;100.00
12211;BME280;6168;42.658;23.298;2022-09-27T07:12:42;64425.88;;;-139.92;100.00
12211;BME280;6168;42.658;23.298;2022-09-27T07:15:11;64390.47;;;-139.92;100.00
12211;BME280;6168;42.658;23.298;2022-09-27T07:17:38;64371.72;;;-139.92;100.00
12211;BME280;6168;42.658;23.298;2022-09-27T07:20:05;64377.97;;;-139.92;100.00
12211;BME280;6168;42.658;23.298;2022-09-27T07:22:33;64396.72;;;-139.92;100.00
12211;BME280;6168;42.658;23.298;2022-09-27T07:25:04;64350.91;;;-139.92;100.00
12211;BME280;6168;42.658;23.298;2022-09-27T07:27:31;64380.06;;;-139.92;100.00
12211;BME280;6168;42.658;23.298;2022-09-27T07:29:59;64342.56;;;-139.92;100.00
12211;BME280;6168;42.658;23.298;2022-09-27T07:32:25;64382.13;;;-139.92;100.00
12211;BME280;6168;42.658;23.298;2022-09-27T07:34:52;64382.13;;;-139.92;100.00
12211;BME280;6168;42.658;23.298;2022-09-27T07:37:19;64336.31;;;-139.92;100.00
12211;BME280;6168;42.658;23.298;2022-09-27T07:39:47;64390.47;;;-139.92;100.00
12211;BME280;6168;42.658;23.298;2022-09-27T07:42:13;64398.78;;;-139.92;100.00
12211;BME280;6168;42.658;23.298;2022-09-27T07:44:40;64350.91;;;-139.92;100.00
12211;BME280;6168;42.658;23.298;2022-09-27T07:47:07;64342.56;;;-139.92;100.00
12211;BME280;6168;42.658;23.298;2022-09-27T07:49:35;64417.53;;;-139.92;100.00
12211;BME280;6168;42.658;23.298;2022-09-27T07:52:01;64392.53;;;-139.92;100.00
12211;BME280;6168;42.658;23.298;2022-09-27T07:54:28;64365.47;;;-139.92;100.00
12211;BME280;6168;42.658;23.298;2022-09-27T07:56:56;64373.81;;;-139.92;100.00
12211;BME280;6168;42.658;23.298;2022-09-27T07:59:22;64373.81;;;-139.92;100.00
12211;BME280;6168;42.658;23.298;2022-09-27T08:01:49;64398.78;;;-139.92;100.00
12211;BME280;6168;42.658;23.298;2022-09-27T08:04:16;64400.88;;;-139.92;100.00
12211;BME280;6168;42.658;23.298;2022-09-27T08:06:42;64394.63;;;-139.92;100.00
12211;BME280;6168;42.658;23.298;2022-09-27T08:09:09;64409.22;;;-139.92;100.00
12211;BME280;6168;42.658;23.298;2022-09-27T08:11:36;64407.13;;;-139.92;100.00
12211;BME280;6168;42.658;23.298;2022-09-27T08:14:04;64415.44;;;-139.92;100.00
12211;BME280;6168;42.658;23.298;2022-09-27T08:16:31;64371.72;;;-139.92;100.00
12211;BME280;6168;42.658;23.298;2022-09-27T08:18:58;64394.63;;;-139.92;100.00
12211;BME280;6168;42.658;23.298;2022-09-27T08:21:25;64413.38;;;-139.92;100.00
12211;BME280;6168;42.658;23.298;2022-09-27T08:23:51;64396.72;;;-139.92;100.00
12211;BME280;6168;42.658;23.298;2022-09-27T08:26:19;64411.28;;;-139.92;100.00
12211;BME280;6168;42.658;23.298;2022-09-27T08:28:45;64361.31;;;-139.92;100.00
12211;BME280;6168;42.658;23.298;2022-09-27T08:31:14;64392.53;;;-139.92;100.00
12211;BME280;6168;42.658;23.298;2022-09-27T08:33:40;64388.38;;;-139.92;100.00
12211;BME280;6168;42.658;23.298;2022-09-27T08:36:09;64409.22;;;-139.92;100.00
12211;BME280;6168;42.658;23.298;2022-09-27T08:38:36;64382.13;;;-139.92;100.00
12211;BME280;6168;42.658;23.298;2022-09-27T08:41:04;64394.63;;;-139.92;100.00
12211;BME280;6168;42.658;23.298;2022-09-27T08:43:33;64380.06;;;-139.92;100.00
12211;BME280;6168;42.658;23.298;2022-09-27T08:46:04;64330.06;;;-139.92;100.00
12211;BME280;6168;42.658;23.298;2022-09-27T08:48:34;64361.31;;;-139.92;100.00
12211;BME280;6168;42.658;23.298;2022-09-27T08:51:02;64369.63;;;-139.92;100.00
12211;BME280;6168;42.658;23.298;2022-09-27T08:53:31;64367.56;;;-139.92;100.00
12211;BME280;6168;42.658;23.298;2022-09-27T08:55:59;64388.38;;;-139.92;100.00
12211;BME280;6168;42.658;23.298;2022-09-27T08:58:29;64361.31;;;-139.92;100.00
12211;BME280;6168;42.658;23.298;2022-09-27T09:00:57;64396.72;;;-139.92;100.00
12211;BME280;6168;42.658;23.298;2022-09-27T09:03:24;64365.47;;;-139.92;100.00
12211;BME280;6168;42.658;23.298;2022-09-27T09:06:00;64323.81;;;-139.92;100.00
12211;BME280;6168;42.658;23.298;2022-09-27T09:08:34;64365.47;;;-139.92;100.00
12211;BME280;6168;42.658;23.298;2022-09-27T09:11:07;64369.63;;;-139.92;100.00
12211;BME280;6168;42.658;23.298;2022-09-27T09:13:58;64344.66;;;-139.92;100.00
12211;BME280;6168;42.658;23.298;2022-09-27T09:16:32;64344.66;;;-139.92;100.00
12211;BME280;6168;42.658;23.298;2022-09-27T09:19:08;64315.50;;;-139.92;100.00
12211;BME280;6168;42.658;23.298;2022-09-27T09:21:41;64346.72;;;-139.92;100.00
12211;BME280;6168;42.658;23.298;2022-09-27T09:24:18;64303.00;;;-139.92;100.00
12211;BME280;6168;42.658;23.298;2022-09-27T09:26:50;64321.75;;;-139.92;100.00
12211;BME280;6168;42.658;23.298;2022-09-27T09:29:25;64303.00;;;-139.92;100.00
12211;BME280;6168;42.658;23.298;2022-09-27T09:31:57;64307.16;;;-139.92;100.00
12211;BME280;6168;42.658;23.298;2022-09-27T09:34:28;64334.25;;;-139.92;100.00
12211;BME280;6168;42.658;23.298;2022-09-27T09:37:00;64303.00;;;-139.92;100.00
12211;BME280;6168;42.658;23.298;2022-09-27T09:39:31;64303.00;;;-139.92;100.00
12211;BME280;6168;42.658;23.298;2022-09-27T09:42:03;64323.81;;;-139.92;100.00
12211;BME280;6168;42.658;23.298;2022-09-27T09:44:33;64332.16;;;-139.92;100.00
12211;BME280;6168;42.658;23.298;2022-09-27T09:47:04;64303.00;;;-139.92;100.00
12211;BME280;6168;42.658;23.298;2022-09-27T09:49:38;64290.50;;;-139.92;100.00
12211;BME280;6168;42.658;23.298;2022-09-27T09:52:10;64359.22;;;-139.92;100.00
12211;BME280;6168;42.658;23.298;2022-09-27T09:54:39;64292.59;;;-139.92;100.00
12211;BME280;6168;42.658;23.298;2022-09-27T09:57:10;64305.09;;;-139.92;100.00
12211;BME280;6168;42.658;23.298;2022-09-27T09:59:41;64350.91;;;-139.92;100.00
12211;BME280;6168;42.658;23.298;2022-09-27T10:02:20;64282.19;;;-139.92;100.00
12211;BME280;6168;42.658;23.298;2022-09-27T10:04:50;64323.81;;;-139.92;100.00
12211;BME280;6168;42.658;23.298;2022-09-27T10:07:19;64307.16;;;-139.92;100.00
12211;BME280;6168;42.658;23.298;2022-09-27T10:09:46;64300.94;;;-139.92;100.00
12211;BME280;6168;42.658;23.298;2022-09-27T10:12:13;64288.44;;;-139.92;100.00
12211;BME280;6168;42.658;23.298;2022-09-27T10:14:40;64298.84;;;-139.92;100.00
12211;BME280;6168;42.658;23.298;2022-09-27T10:17:09;64282.19;;;-139.92;100.00
12211;BME280;6168;42.658;23.298;2022-09-27T10:19:38;64352.97;;;-139.92;100.00
12211;BME280;6168;42.658;23.298;2022-09-27T10:22:10;64300.94;;;-139.92;100.00
12211;BME280;6168;42.658;23.298;2022-09-27T10:24:52;64325.91;;;-139.92;100.00
12211;BME280;6168;42.658;23.298;2022-09-27T10:27:20;64323.81;;;-139.92;100.00
12211;BME280;6168;42.658;23.298;2022-09-27T10:29:48;64328.00;;;-139.92;100.00
12211;BME280;6168;42.658;23.298;2022-09-27T10:32:22;64361.31;;;-139.92;100.00
12211;BME280;6168;42.658;23.298;2022-09-27T10:34:51;64328.00;;;-139.92;100.00
12211;BME280;6168;42.658;23.298;2022-09-27T10:37:19;64330.06;;;-139.92;100.00
12211;BME280;6168;42.658;23.298;2022-09-27T10:39:47;64334.25;;;-139.92;100.00
12211;BME280;6168;42.658;23.298;2022-09-27T10:42:30;64328.00;;;-139.92;100.00
12211;BME280;6168;42.658;23.298;2022-09-27T10:44:58;64315.50;;;-139.92;100.00
12211;BME280;6168;42.658;23.298;2022-09-27T10:47:44;64290.50;;;-139.92;100.00
12211;BME280;6168;42.658;23.298;2022-09-27T10:50:15;64294.69;;;-139.92;100.00
12211;BME280;6168;42.658;23.298;2022-09-27T10:52:43;64282.19;;;-139.92;100.00
12211;BME280;6168;42.658;23.298;2022-09-27T10:55:15;64278.03;;;-139.92;100.00
12211;BME280;6168;42.658;23.298;2022-09-27T10:57:48;64296.75;;;-139.92;100.00
12211;BME280;6168;42.658;23.298;2022-09-27T11:00:19;64267.59;;;-139.92;100.00
12211;BME280;6168;42.658;23.298;2022-09-27T11:02:50;64275.94;;;-139.92;100.00
12211;BME280;6168;42.658;23.298;2022-09-27T11:05:28;64265.53;;;-139.92;100.00
12211;BME280;6168;42.658;23.298;2022-09-27T11:07:56;64271.78;;;-139.92;100.00
12211;BME280;6168;42.658;23.298;2022-09-27T11:10:24;64265.53;;;-139.92;100.00
12211;BME280;6168;42.658;23.298;2022-09-27T11:13:11;64267.59;;;-139.92;100.00
12211;BME280;6168;42.658;23.298;2022-09-27T11:15:45;64230.13;;;-139.92;100.00
12211;BME280;6168;42.658;23.298;2022-09-27T11:18:17;64244.69;;;-139.92;100.00
12211;BME280;6168;42.658;23.298;2022-09-27T11:20:49;64286.34;;;-139.92;100.00
12211;BME280;6168;42.658;23.298;2022-09-27T11:26:12;64257.19;;;-139.92;100.00
12211;BME280;6168;42.658;23.298;2022-09-27T11:28:43;64221.78;;;-139.92;100.00
12211;BME280;6168;42.658;23.298;2022-09-27T11:31:15;64244.69;;;-139.92;100.00
12211;BME280;6168;42.658;23.298;2022-09-27T11:34:06;64240.53;;;-139.92;100.00
12211;BME280;6168;42.658;23.298;2022-09-27T11:36:42;64238.44;;;-139.92;100.00
12211;BME280;6168;42.658;23.298;2022-09-27T11:39:15;64242.63;;;-139.92;100.00
12211;BME280;6168;42.658;23.298;2022-09-27T11:41:48;64219.72;;;-139.92;100.00
12211;BME280;6168;42.658;23.298;2022-09-27T11:44:29;64194.72;;;-139.92;100.00
12211;BME280;6168;42.658;23.298;2022-09-27T11:47:00;64215.56;;;-139.92;100.00
12211;BME280;6168;42.658;23.298;2022-09-27T11:49:45;64207.22;;;-139.92;100.00
12211;BME280;6168;42.658;23.298;2022-09-27T11:52:19;64248.88;;;-139.92;100.00
12211;BME280;6168;42.658;23.298;2022-09-27T11:54:54;64278.03;;;-139.92;100.00
12211;BME280;6168;42.658;23.298;2022-09-27T11:57:25;64236.38;;;-139.92;100.00
12211;BME280;6168;42.658;23.298;2022-09-27T12:00:03;64257.19;;;-139.92;100.00
12211;BME280;6168;42.658;23.298;2022-09-27T12:02:37;64230.13;;;-139.92;100.00
12211;BME280;6168;42.658;23.298;2022-09-27T12:05:12;64223.88;;;-139.92;100.00
12211;BME280;6168;42.658;23.298;2022-09-27T12:07:42;64257.19;;;-139.92;100.00
12211;BME280;6168;42.658;23.298;2022-09-27T12:10:12;64219.72;;;-139.92;100.00
12211;BME280;6168;42.658;23.298;2022-09-27T12:12:41;64198.88;;;-139.92;100.00
12211;BME280;6168;42.658;23.298;2022-09-27T12:15:13;64194.72;;;-139.92;100.00
12211;BME280;6168;42.658;23.298;2022-09-27T12:17:42;64194.72;;;-139.92;100.00
12211;BME280;6168;42.658;23.298;2022-09-27T12:20:13;64215.56;;;-139.92;100.00
12211;BME280;6168;42.658;23.298;2022-09-27T12:22:44;64217.63;;;-139.92;100.00
12211;BME280;6168;42.658;23.298;2022-09-27T12:25:12;64176.00;;;-139.92;100.00
12211;BME280;6168;42.658;23.298;2022-09-27T12:27:41;64180.16;;;-139.92;100.00
12211;BME280;6168;42.658;23.298;2022-09-27T12:30:10;64188.47;;;-139.92;100.00
12211;BME280;6168;42.658;23.298;2022-09-27T12:32:41;64207.22;;;-139.92;100.00
12211;BME280;6168;42.658;23.298;2022-09-27T12:35:14;64165.56;;;-139.92;100.00
12211;BME280;6168;42.658;23.298;2022-09-27T12:37:43;64134.34;;;-139.92;100.00
12211;BME280;6168;42.658;23.298;2022-09-27T12:40:14;64161.41;;;-139.92;100.00
12211;BME280;6168;42.658;23.298;2022-09-27T12:42:43;64173.91;;;-139.92;100.00
12211;BME280;6168;42.658;23.298;2022-09-27T12:45:11;64209.31;;;-139.92;100.00
12211;BME280;6168;42.658;23.298;2022-09-27T12:47:47;64171.81;;;-139.92;100.00